Time;durP1;ratioP1;P1;durP2;ratioP2;P2;SDS_P1;SDS_P2;PMS_P1;PMS_P2;Temp;Humidity;BMP_temperature;BMP_pressure;BME280_temperature;BME280_humidity;BME280_pressure;Samples;Min_cycle;Max_cycle;Signal;HPM_P1;HPM_P2
2022/04/22 00:04:59;;;;;;;0.20;0.00;;;13.50;99.90;;;;;;25503737;23;20195;-70
2022/04/22 00:15:03;;;;;;;0.20;0.00;;;13.40;99.90;;;;;;25505517;23;20210;-71
2022/04/22 00:25:10;;;;;;;0.20;0.10;;;13.20;99.90;;;;;;25501774;23;20167;-72
2022/04/22 00:35:14;;;;;;;0.20;0.00;;;13.40;99.90;;;;;;25478833;23;20551;-70
2022/04/22 00:45:20;;;;;;;0.20;0.10;;;13.50;99.90;;;;;;25528460;23;20192;-70
2022/04/22 00:55:24;;;;;;;0.20;0.10;;;13.40;99.90;;;;;;25503005;23;20193;-71
2022/04/22 01:15:51;;;;;;;0.20;0.10;;;12.80;99.90;;;;;;25503159;23;20214;-70
2022/04/22 01:25:57;;;;;;;0.20;0.10;;;12.80;99.90;;;;;;25528681;23;20201;-72
2022/04/22 01:36:01;;;;;;;0.20;0.10;;;12.50;99.90;;;;;;25508182;23;20305;-72
2022/04/22 01:46:06;;;;;;;0.20;0.10;;;12.30;99.90;;;;;;25534944;23;20190;-75
2022/04/22 01:56:10;;;;;;;0.20;0.10;;;12.10;99.90;;;;;;25532404;23;20213;-74
2022/04/22 02:06:15;;;;;;;0.20;0.10;;;11.80;99.90;;;;;;25506544;23;20167;-73
2022/04/22 02:16:19;;;;;;;0.20;0.00;;;11.90;99.90;;;;;;25534007;23;20213;-72
2022/04/22 02:26:24;;;;;;;0.20;0.10;;;11.90;99.90;;;;;;25532822;23;20202;-74
2022/04/22 02:36:28;;;;;;;0.20;0.10;;;11.70;99.90;;;;;;25507379;23;20195;-73
2022/04/22 02:46:33;;;;;;;0.20;0.10;;;11.60;99.90;;;;;;25504804;23;20171;-73
2022/04/22 02:56:37;;;;;;;0.20;0.10;;;11.70;99.90;;;;;;25506916;23;20257;-73
2022/04/22 03:06:43;;;;;;;0.20;0.10;;;12.40;99.90;;;;;;25506630;23;20178;-71
2022/04/22 03:16:47;;;;;;;0.20;0.10;;;12.00;99.90;;;;;;25530643;23;20222;-71
2022/04/22 03:26:53;;;;;;;0.20;0.10;;;12.10;99.90;;;;;;25533048;23;20186;-72
2022/04/22 03:36:59;;;;;;;0.20;0.10;;;12.10;99.90;;;;;;25532014;23;20190;-71
2022/04/22 03:47:05;;;;;;;0.20;0.10;;;11.90;99.90;;;;;;25532677;23;20446;-70
2022/04/22 04:07:32;;;;;;;0.20;0.10;;;11.40;99.90;;;;;;25497603;23;20266;-72
2022/04/22 04:17:38;;;;;;;0.20;0.10;;;11.50;99.90;;;;;;25526149;23;20202;-74
2022/04/22 04:27:45;;;;;;;0.20;0.10;;;11.60;99.90;;;;;;25528096;23;20167;-72
2022/04/22 04:37:49;;;;;;;0.20;0.10;;;11.40;99.90;;;;;;25527096;23;20187;-70
2022/04/22 04:47:54;;;;;;;0.20;0.10;;;11.90;99.90;;;;;;25501450;23;20159;-68
2022/04/22 04:57:58;;;;;;;0.20;0.10;;;11.80;99.90;;;;;;25528342;23;20206;-70
2022/04/22 05:08:03;;;;;;;0.20;0.10;;;11.50;99.90;;;;;;25529522;23;20167;-69
2022/04/22 05:18:07;;;;;;;0.20;0.10;;;11.40;99.90;;;;;;25532225;23;20198;-71
2022/04/22 05:28:12;;;;;;;0.20;0.00;;;10.90;99.90;;;;;;25533431;23;20464;-72
2022/04/22 05:38:17;;;;;;;0.20;0.10;;;10.80;99.90;;;;;;25530255;23;20202;-72
2022/04/22 05:48:22;;;;;;;0.20;0.10;;;10.80;99.90;;;;;;25531967;23;20182;-73
2022/04/22 05:58:26;;;;;;;0.20;0.10;;;11.30;99.90;;;;;;25501117;23;20217;-70
2022/04/22 14:45:39;;;;;;;0.20;0.00;;;19.70;99.90;;;;;;25607443;23;20442;-72
2022/04/22 14:55:44;;;;;;;0.20;0.00;;;18.70;99.90;;;;;;25616985;23;20209;-71
2022/04/22 15:05:48;;;;;;;0.20;0.10;;;18.00;99.90;;;;;;25640487;23;20197;-76
2022/04/22 15:15:53;;;;;;;0.20;0.00;;;17.60;99.90;;;;;;25639231;23;20349;-71
2022/04/22 15:25:58;;;;;;;0.20;0.10;;;17.30;99.90;;;;;;25641439;23;20189;-71
2022/04/22 15:36:05;;;;;;;0.20;0.20;;;17.40;99.90;;;;;;25544196;23;20202;-70
2022/04/22 15:46:09;;;;;;;0.20;0.00;;;17.10;99.90;;;;;;25517822;23;20167;-70
2022/04/22 15:56:15;;;;;;;0.20;0.10;;;17.20;99.90;;;;;;25521085;23;20202;-71
2022/04/22 16:06:20;;;;;;;0.20;0.03;;;17.10;99.90;;;;;;25525255;23;20314;-72
2022/04/22 16:16:26;;;;;;;0.20;0.10;;;17.20;99.90;;;;;;25549097;23;20198;-72
2022/04/22 16:26:31;;;;;;;0.20;0.10;;;17.20;99.90;;;;;;25550696;23;20186;-72
2022/04/22 16:36:36;;;;;;;0.20;0.00;;;17.30;99.90;;;;;;25526464;23;20201;-73
2022/04/22 16:46:40;;;;;;;0.20;0.10;;;17.50;99.90;;;;;;25525992;23;20206;-70
2022/04/22 16:56:45;;;;;;;0.20;0.10;;;17.40;99.90;;;;;;25548328;23;20217;-71
2022/04/22 17:06:51;;;;;;;0.20;0.10;;;17.30;99.90;;;;;;25522381;23;20177;-71
2022/04/22 17:27:24;;;;;;;0.20;0.00;;;17.10;99.90;;;;;;25489590;23;20170;-72
2022/04/22 17:37:29;;;;;;;0.20;0.10;;;17.40;99.90;;;;;;25550500;23;20199;-71
2022/04/22 17:47:33;;;;;;;0.20;0.00;;;17.40;99.90;;;;;;25547176;23;20195;-72
2022/04/22 17:57:38;;;;;;;0.20;0.10;;;17.20;99.90;;;;;;25547542;23;20222;-73
2022/04/22 18:07:42;;;;;;;0.20;0.10;;;17.10;99.90;;;;;;25525154;23;20163;-74
2022/04/22 18:17:47;;;;;;;0.20;0.10;;;17.00;99.90;;;;;;25528799;23;20195;-71
2022/04/22 18:27:51;;;;;;;0.20;0.10;;;17.00;99.90;;;;;;25558193;23;20155;-69
2022/04/22 18:37:57;;;;;;;0.20;0.10;;;16.90;99.90;;;;;;25554874;23;20285;-72
2022/04/22 18:48:00;;;;;;;0.20;0.10;;;16.60;99.90;;;;;;25532325;23;20202;-71
2022/04/22 18:58:06;;;;;;;0.20;0.10;;;16.20;99.90;;;;;;25531679;23;20207;-71
2022/04/22 19:08:11;;;;;;;0.20;0.10;;;15.80;99.90;;;;;;25556890;23;20227;-73
2022/04/22 19:18:18;;;;;;;0.20;0.10;;;15.70;99.90;;;;;;25530300;23;20241;-73
2022/04/22 19:28:22;;;;;;;0.20;0.00;;;15.80;99.90;;;;;;25527564;23;20167;-70
2022/04/22 19:48:49;;;;;;;0.20;0.00;;;15.20;99.90;;;;;;25531600;23;20205;-74
2022/04/22 19:58:55;;;;;;;0.20;0.00;;;15.10;99.90;;;;;;25546744;23;20194;-74
2022/04/22 20:08:59;;;;;;;0.20;0.00;;;14.90;99.90;;;;;;25525968;23;20159;-72
2022/04/22 20:19:04;;;;;;;0.20;0.00;;;14.70;99.90;;;;;;25523059;23;20183;-74
2022/04/22 20:29:08;;;;;;;0.20;0.10;;;14.40;99.90;;;;;;25533328;23;20158;-73
2022/04/22 20:49:35;;;;;;;0.20;0.00;;;14.60;99.90;;;;;;25555054;23;20210;-73
2022/04/22 20:59:40;;;;;;;0.20;0.10;;;14.90;99.90;;;;;;25527355;23;20201;-73
2022/04/22 21:09:50;;;;;;;0.20;0.00;;;14.50;99.90;;;;;;25531716;23;20166;-72
2022/04/22 21:19:56;;;;;;;0.20;0.00;;;14.50;99.90;;;;;;25527351;23;20259;-73
2022/04/22 21:30:00;;;;;;;0.20;0.00;;;14.40;99.90;;;;;;25530891;23;20307;-75
2022/04/22 21:40:07;;;;;;;0.20;0.00;;;14.40;99.90;;;;;;25527323;23;20206;-70
2022/04/22 21:50:11;;;;;;;0.20;0.00;;;14.20;99.90;;;;;;25529953;23;20199;-72
2022/04/22 22:00:20;;;;;;;0.20;0.00;;;14.00;99.90;;;;;;25533717;23;20198;-71
2022/04/22 22:10:24;;;;;;;0.20;0.00;;;13.80;99.90;;;;;;25536769;23;20245;-71
2022/04/22 22:20:31;;;;;;;0.20;0.10;;;13.80;99.90;;;;;;25533869;23;20597;-72
2022/04/22 22:30:35;;;;;;;0.20;0.00;;;13.50;99.90;;;;;;25562020;23;20191;-72
2022/04/22 22:40:41;;;;;;;0.20;0.00;;;13.40;99.90;;;;;;25533606;23;20845;-71
2022/04/22 22:50:45;;;;;;;0.20;0.10;;;13.20;99.90;;;;;;25558456;23;20201;-71
2022/04/22 23:00:50;;;;;;;0.20;0.10;;;13.00;99.90;;;;;;25531065;23;20251;-70
2022/04/22 23:10:54;;;;;;;0.20;0.00;;;13.10;99.90;;;;;;25531336;23;20171;-70
2022/04/22 23:21:03;;;;;;;0.20;0.00;;;13.30;99.90;;;;;;25554698;23;20202;-72
2022/04/22 23:31:07;;;;;;;0.20;0.10;;;13.30;99.90;;;;;;25555636;23;20175;-71
2022/04/22 23:41:12;;;;;;;0.20;0.10;;;13.30;99.90;;;;;;25526934;23;20186;-73
2022/04/22 23:51:16;;;;;;;0.20;0.10;;;13.40;99.90;;;;;;25505636;23;20213;-75
